createdAt,value
2022-12-08T00:01:17.662Z,8.57
2022-12-08T00:03:45.795Z,9.25
2022-12-08T00:06:35.863Z,8.57
2022-12-08T00:09:21.421Z,8.55
2022-12-08T00:11:49.415Z,8.73
2022-12-08T00:14:17.378Z,8.85
2022-12-08T00:16:46.605Z,8.35
2022-12-08T00:19:14.699Z,8.68
2022-12-08T00:21:43.033Z,7.93
2022-12-08T00:24:10.856Z,8.43
2022-12-08T00:26:39.225Z,8.32
2022-12-08T00:29:07.161Z,8.70
2022-12-08T00:31:35.143Z,8.88
2022-12-08T00:34:04.630Z,8.30
2022-12-08T00:36:32.580Z,8.90
2022-12-08T00:39:00.797Z,9.38
2022-12-08T00:41:46.734Z,9.05
2022-12-08T00:44:15.919Z,9.18
2022-12-08T00:46:44.238Z,8.48
2022-12-08T00:49:13.779Z,8.30
2022-12-08T00:51:41.930Z,8.48
2022-12-08T00:54:09.804Z,9.45
2022-12-08T00:56:38.225Z,7.95
2022-12-08T00:59:06.801Z,8.80
2022-12-08T01:01:35.168Z,8.27
2022-12-08T01:04:04.266Z,8.60
2022-12-08T01:06:33.709Z,8.98
2022-12-08T01:09:02.645Z,8.60
2022-12-08T01:11:30.711Z,8.35
2022-12-08T01:13:58.527Z,9.18
2022-12-08T01:16:27.763Z,8.10
2022-12-08T01:18:56.056Z,9.32
2022-12-08T01:21:24.010Z,8.40
2022-12-08T01:23:53.594Z,8.82
2022-12-08T01:26:21.739Z,8.35
2022-12-08T01:28:49.629Z,8.02
2022-12-08T01:31:18.767Z,8.13
2022-12-08T01:33:47.100Z,8.57
2022-12-08T01:36:19.882Z,7.10
2022-12-08T01:38:48.013Z,8.07
2022-12-08T01:41:18.039Z,7.63
2022-12-08T01:43:59.879Z,9.05
2022-12-08T01:46:28.640Z,8.23
2022-12-08T01:49:00.132Z,8.13
2022-12-08T01:51:28.614Z,6.95
2022-12-08T01:53:56.512Z,8.02
2022-12-08T01:56:29.529Z,8.20
2022-12-08T01:58:57.605Z,8.88
2022-12-08T02:01:25.783Z,8.98
2022-12-08T02:03:56.579Z,7.65
2022-12-08T02:06:24.449Z,8.00
2022-12-08T02:08:55.118Z,8.00
2022-12-08T02:11:23.032Z,7.57
2022-12-08T02:13:53.541Z,8.05
2022-12-08T02:16:28.861Z,8.02
2022-12-08T02:19:29.816Z,7.85
2022-12-08T02:21:56.057Z,7.05
2022-12-08T02:24:29.517Z,8.45
2022-12-08T02:27:14.483Z,7.95
2022-12-08T02:30:01.467Z,7.30
2022-12-08T02:32:47.182Z,9.18
2022-12-08T02:35:19.336Z,9.00
2022-12-08T02:37:49.686Z,8.35
2022-12-08T02:40:22.340Z,8.77
2022-12-08T02:42:55.346Z,9.05
2022-12-08T02:45:26.174Z,9.38
2022-12-08T02:47:54.758Z,8.75
2022-12-08T02:50:24.002Z,9.43
2022-12-08T02:52:52.109Z,9.43
2022-12-08T02:55:23.749Z,10.95
2022-12-08T02:58:00.038Z,9.35
2022-12-08T03:03:54.823Z,9.50
2022-12-08T03:08:53.163Z,9.55
2022-12-08T03:11:23.287Z,9.45
2022-12-08T03:13:52.865Z,9.38
2022-12-08T03:16:22.684Z,10.48
2022-12-08T03:18:52.536Z,10.20
2022-12-08T03:21:21.722Z,9.93
2022-12-08T03:23:52.025Z,10.32
2022-12-08T03:26:24.016Z,9.73
2022-12-08T03:28:51.979Z,10.83
2022-12-08T03:31:20.924Z,8.85
2022-12-08T03:33:51.132Z,9.90
2022-12-08T03:36:19.620Z,8.88
2022-12-08T03:38:48.506Z,10.93
2022-12-08T03:41:22.123Z,11.30
2022-12-08T03:43:53.042Z,9.90
2022-12-08T03:48:48.917Z,10.90
2022-12-08T03:51:17.337Z,10.98
2022-12-08T03:53:45.698Z,10.50
2022-12-08T03:56:16.470Z,10.80
2022-12-08T03:58:44.655Z,10.43
2022-12-08T04:01:13.983Z,12.77
2022-12-08T04:03:41.797Z,11.75
2022-12-08T04:06:09.835Z,11.98
2022-12-08T04:08:37.723Z,11.27
2022-12-08T04:11:06.746Z,11.05
2022-12-08T04:13:34.962Z,11.10
2022-12-08T04:16:03.010Z,10.73
2022-12-08T04:18:32.777Z,10.75
2022-12-08T04:21:00.621Z,10.35
2022-12-08T04:23:28.785Z,11.98
2022-12-08T04:25:56.671Z,12.07
2022-12-08T04:28:24.585Z,11.07
2022-12-08T04:30:53.090Z,11.40
2022-12-08T04:33:21.133Z,11.93
2022-12-08T04:35:50.626Z,11.88
2022-12-08T04:38:18.587Z,11.88
2022-12-08T04:40:46.466Z,11.48
2022-12-08T04:43:14.339Z,9.82
2022-12-08T04:45:42.498Z,10.95
2022-12-08T04:48:12.788Z,10.93
2022-12-08T04:50:41.497Z,11.48
2022-12-08T04:53:11.566Z,12.40
2022-12-08T04:55:40.094Z,11.85
2022-12-08T04:58:07.886Z,11.45
2022-12-08T05:00:35.851Z,12.20
2022-12-08T05:03:03.814Z,10.65
2022-12-08T05:05:32.098Z,12.65
2022-12-08T05:08:00.063Z,10.45
2022-12-08T05:10:29.471Z,12.00
2022-12-08T05:12:58.679Z,10.75
2022-12-08T05:15:26.760Z,12.05
2022-12-08T05:17:54.699Z,10.57
2022-12-08T05:20:22.612Z,10.73
2022-12-08T05:22:50.479Z,13.68
2022-12-08T05:25:18.671Z,11.52
2022-12-08T05:27:47.960Z,11.43
2022-12-08T05:30:15.896Z,12.85
2022-12-08T05:32:43.707Z,10.93
2022-12-08T05:35:11.778Z,10.93
2022-12-08T05:37:39.920Z,10.93
2022-12-08T05:40:08.466Z,10.82
2022-12-08T05:42:36.401Z,11.88
2022-12-08T05:45:06.209Z,11.15
2022-12-08T05:47:36.151Z,10.13
2022-12-08T05:50:04.530Z,11.20
2022-12-08T05:52:33.149Z,10.98
2022-12-08T05:55:01.550Z,10.75
2022-12-08T05:57:29.365Z,13.02
2022-12-08T05:59:59.517Z,12.13
2022-12-08T09:08:39.350Z,15.50
2022-12-08T09:11:07.459Z,15.35
2022-12-08T09:13:35.701Z,15.15
2022-12-08T09:16:04.388Z,14.38
2022-12-08T09:18:32.367Z,13.32
2022-12-08T09:21:04.739Z,14.23
2022-12-08T09:23:35.542Z,14.77
2022-12-08T09:26:05.446Z,12.10
2022-12-08T09:28:33.650Z,13.52
2022-12-08T09:31:01.914Z,12.85
2022-12-08T09:33:30.066Z,11.98
2022-12-08T09:35:57.911Z,12.65
2022-12-08T09:38:26.090Z,12.13
2022-12-08T09:40:54.347Z,11.00
2022-12-08T09:46:17.416Z,12.25
2022-12-08T09:48:47.419Z,11.57
2022-12-08T09:51:16.499Z,11.18
2022-12-08T09:53:47.161Z,9.68
2022-12-08T09:56:16.741Z,11.27
2022-12-08T09:58:50.220Z,10.73
2022-12-08T10:01:20.580Z,10.38
2022-12-08T10:03:48.809Z,10.70
2022-12-08T10:06:20.770Z,9.48
2022-12-08T10:08:52.943Z,9.60
2022-12-08T10:11:25.312Z,8.82
2022-12-08T10:13:57.879Z,9.38
2022-12-08T10:16:30.667Z,8.80
2022-12-08T10:19:01.913Z,8.85
2022-12-08T10:21:31.701Z,9.05
2022-12-08T10:24:02.532Z,9.88
2022-12-08T10:26:32.811Z,8.20
2022-12-08T10:29:02.838Z,7.45
2022-12-08T10:31:32.888Z,7.65
2022-12-08T10:34:01.486Z,7.15
2022-12-08T10:36:44.272Z,6.30
2022-12-08T10:39:29.871Z,5.82
2022-12-08T10:42:01.387Z,6.55
2022-12-08T10:44:29.514Z,7.45
2022-12-08T10:46:58.938Z,6.22
2022-12-08T10:49:27.651Z,6.53
2022-12-08T10:51:55.949Z,5.75
2022-12-08T10:54:28.158Z,6.90
2022-12-08T10:56:56.958Z,7.13
2022-12-08T10:59:25.754Z,5.57
2022-12-08T11:01:55.166Z,5.93
2022-12-08T11:04:30.174Z,7.07
2022-12-08T11:06:58.261Z,6.07
2022-12-08T11:09:34.608Z,5.13
2022-12-08T11:12:07.491Z,5.47
2022-12-08T11:14:38.999Z,6.53
2022-12-08T11:17:08.169Z,6.70
2022-12-08T11:19:40.020Z,5.53
2022-12-08T11:22:22.206Z,6.22
2022-12-08T11:24:57.682Z,6.20
2022-12-08T11:27:25.568Z,6.30
2022-12-08T11:29:53.565Z,6.32
2022-12-08T11:32:21.774Z,7.20
2022-12-08T11:35:09.501Z,5.57
2022-12-08T11:37:40.007Z,5.78
2022-12-08T11:40:09.093Z,5.75
2022-12-08T11:42:39.625Z,5.82
2022-12-08T11:45:09.130Z,5.95
2022-12-08T11:47:41.631Z,6.05
2022-12-08T11:50:18.125Z,5.65
2022-12-08T11:52:51.029Z,5.95
2022-12-08T11:55:25.173Z,7.72
2022-12-08T11:57:53.223Z,6.72
2022-12-08T12:00:21.248Z,5.50
2022-12-08T12:02:52.324Z,4.80
2022-12-08T12:05:39.919Z,6.20
2022-12-08T12:08:21.905Z,5.35
2022-12-08T12:10:55.311Z,5.70
2022-12-08T12:13:28.866Z,5.85
2022-12-08T12:16:11.857Z,6.00
2022-12-08T12:18:45.170Z,4.60
2022-12-08T12:21:16.871Z,6.47
2022-12-08T12:23:48.551Z,5.25
2022-12-08T12:26:19.946Z,6.20
2022-12-08T12:28:52.386Z,7.03
2022-12-08T12:31:22.911Z,5.75
2022-12-08T12:33:51.714Z,5.45
2022-12-08T12:36:19.765Z,6.00
2022-12-08T12:39:04.169Z,6.32
2022-12-08T12:41:35.071Z,5.57
2022-12-08T12:44:22.931Z,5.78
2022-12-08T12:46:55.813Z,5.20
2022-12-08T12:49:43.696Z,6.38
2022-12-08T12:52:26.647Z,6.47
2022-12-08T12:55:13.366Z,8.30
2022-12-08T12:57:51.667Z,6.43
2022-12-08T13:00:20.649Z,6.15
2022-12-08T13:02:49.816Z,5.43
2022-12-08T13:05:20.132Z,5.85
2022-12-08T13:07:50.974Z,6.15
2022-12-08T13:10:20.105Z,5.95
2022-12-08T13:13:03.151Z,8.82
2022-12-08T13:15:35.050Z,7.32
2022-12-08T13:18:03.254Z,6.95
2022-12-08T13:20:31.220Z,6.22
2022-12-08T13:23:02.915Z,6.80
2022-12-08T13:25:51.896Z,6.00
2022-12-08T13:28:28.599Z,6.57
2022-12-08T13:30:58.397Z,7.20
2022-12-08T13:33:28.323Z,5.95
2022-12-08T13:36:05.159Z,6.38
2022-12-08T13:38:35.477Z,6.88
2022-12-08T13:41:07.478Z,7.60
2022-12-08T13:43:52.451Z,8.73
2022-12-08T13:51:23.795Z,7.18
2022-12-08T13:53:49.641Z,7.35
2022-12-08T13:56:37.254Z,7.32
2022-12-08T13:57:56.210Z,6.20
2022-12-08T14:00:27.511Z,8.75
2022-12-08T14:02:57.566Z,8.68
2022-12-08T14:05:55.064Z,7.53
2022-12-08T14:08:50.452Z,7.13
2022-12-08T14:11:08.900Z,6.60
2022-12-08T14:13:36.752Z,6.57
2022-12-08T14:16:06.342Z,7.25
2022-12-08T14:18:34.279Z,7.57
2022-12-08T14:21:22.371Z,6.25
2022-12-08T14:23:50.371Z,7.25
2022-12-08T14:26:18.388Z,6.97
2022-12-08T14:28:46.621Z,7.32
2022-12-08T14:31:17.798Z,7.13
2022-12-08T14:33:49.402Z,6.82
2022-12-08T14:36:22.074Z,8.20
2022-12-08T14:38:50.682Z,6.40
2022-12-08T14:41:25.667Z,5.40
2022-12-08T14:43:59.904Z,1.73
2022-12-08T14:46:30.349Z,1.80
2022-12-08T14:48:59.012Z,1.30
2022-12-08T14:51:29.327Z,1.20
2022-12-08T14:53:58.917Z,1.10
2022-12-08T14:56:28.994Z,1.30
2022-12-08T14:59:04.686Z,1.25
2022-12-08T15:01:34.412Z,1.00
2022-12-08T15:04:03.697Z,1.48
2022-12-08T15:06:31.743Z,1.10
2022-12-08T15:09:00.853Z,1.35
2022-12-08T15:11:32.649Z,1.17
2022-12-08T15:14:00.820Z,1.23
2022-12-08T15:16:31.867Z,1.40
2022-12-08T15:19:16.978Z,1.05
2022-12-08T15:21:45.606Z,1.38
2022-12-08T15:24:14.911Z,1.20
2022-12-08T15:26:45.434Z,1.45
2022-12-08T15:29:15.332Z,1.77
2022-12-08T15:31:43.303Z,2.13
2022-12-08T15:34:12.494Z,2.33
2022-12-08T15:36:42.824Z,2.53
2022-12-08T15:39:19.610Z,3.28
2022-12-08T15:41:47.464Z,6.38
2022-12-08T15:44:15.719Z,6.93
2022-12-08T15:46:43.631Z,8.75
2022-12-08T15:49:17.594Z,8.63
2022-12-08T15:51:45.449Z,7.38
2022-12-08T15:54:13.375Z,5.55
2022-12-08T15:57:02.959Z,3.17
2022-12-08T15:59:30.728Z,3.58
2022-12-08T16:01:58.604Z,3.33
2022-12-08T16:05:17.793Z,3.85
2022-12-08T16:07:21.977Z,4.63
2022-12-08T16:09:53.465Z,5.45
2022-12-08T16:18:28.632Z,6.43
2022-12-08T16:21:09.592Z,8.18
2022-12-08T16:23:46.031Z,5.45
2022-12-08T16:29:04.219Z,4.95
2022-12-08T16:31:32.212Z,3.60
2022-12-08T16:34:00.105Z,2.55
2022-12-08T16:36:29.357Z,2.38
2022-12-08T16:38:57.568Z,2.15
2022-12-08T16:41:43.307Z,2.30
2022-12-08T16:44:11.369Z,1.75
2022-12-08T16:46:39.426Z,1.85
2022-12-08T16:49:09.127Z,3.45
2022-12-08T16:51:38.641Z,2.80
2022-12-08T16:54:06.819Z,2.65
2022-12-08T16:56:34.625Z,1.70
2022-12-08T16:59:02.865Z,2.08
2022-12-08T17:01:30.825Z,2.50
2022-12-08T17:04:29.857Z,2.50
2022-12-08T17:06:48.024Z,2.83
2022-12-08T17:09:16.088Z,3.80
2022-12-08T17:11:44.163Z,3.63
2022-12-08T17:14:12.534Z,4.20
2022-12-08T17:16:40.590Z,4.40
2022-12-08T17:19:08.674Z,4.93
2022-12-08T17:21:36.517Z,4.95
2022-12-08T17:24:06.275Z,5.10
2022-12-08T17:26:34.453Z,4.65
2022-12-08T17:29:02.706Z,5.97
2022-12-08T17:31:31.743Z,5.72
2022-12-08T17:34:00.331Z,5.35
2022-12-08T17:36:28.201Z,5.28
2022-12-08T17:38:56.309Z,5.72
2022-12-08T17:41:25.523Z,7.63
2022-12-08T17:43:53.330Z,6.22
2022-12-08T17:46:21.864Z,5.60
2022-12-08T17:48:49.845Z,4.65
2022-12-08T17:51:18.062Z,4.57
2022-12-08T17:53:45.880Z,4.57
2022-12-08T17:56:16.181Z,3.97
2022-12-08T17:58:48.563Z,4.00
2022-12-08T18:01:19.205Z,4.55
2022-12-08T18:03:47.185Z,4.70
2022-12-08T18:06:15.096Z,5.80
2022-12-08T18:08:42.910Z,5.60
2022-12-08T18:11:12.890Z,5.28
2022-12-08T18:13:41.110Z,5.40
2022-12-08T18:16:10.329Z,4.82
2022-12-08T18:18:38.362Z,4.55
2022-12-08T18:21:06.342Z,4.32
2022-12-08T18:23:34.421Z,4.63
2022-12-08T18:26:04.517Z,2.63
2022-12-08T18:28:32.475Z,3.25
2022-12-08T18:31:00.447Z,3.92
2022-12-08T18:33:29.957Z,4.00
2022-12-08T18:35:57.839Z,4.63
2022-12-08T18:38:25.621Z,6.60
2022-12-08T18:40:53.448Z,5.07
2022-12-08T18:43:21.327Z,6.43
2022-12-08T18:45:49.220Z,9.85
2022-12-08T18:48:17.064Z,6.65
2022-12-08T18:50:46.436Z,8.40
2022-12-08T18:53:14.417Z,5.43
2022-12-08T18:55:42.276Z,4.70
2022-12-08T18:58:11.115Z,5.43
2022-12-08T19:00:39.251Z,4.95
2022-12-08T19:03:07.350Z,4.45
2022-12-08T19:05:35.213Z,3.75
2022-12-08T19:08:04.833Z,4.18
2022-12-08T19:10:33.339Z,4.22
2022-12-08T19:13:01.217Z,3.83
2022-12-08T19:15:29.076Z,4.35
2022-12-08T19:17:57.104Z,4.43
2022-12-08T19:20:25.250Z,5.45
2022-12-08T19:22:53.061Z,5.05
2022-12-08T19:25:22.342Z,5.40
2022-12-08T19:27:50.335Z,7.35
2022-12-08T19:30:18.359Z,5.78
2022-12-08T19:32:46.424Z,4.93
2022-12-08T19:35:14.292Z,5.60
2022-12-08T19:37:42.153Z,4.68
2022-12-08T19:40:30.918Z,6.97
2022-12-08T19:43:17.454Z,8.68
2022-12-08T19:45:45.532Z,7.05
2022-12-08T19:48:14.035Z,7.75
2022-12-08T19:50:42.326Z,8.02
2022-12-08T19:53:11.731Z,7.88
2022-12-08T19:55:39.999Z,11.73
2022-12-08T19:58:09.481Z,12.13
2022-12-08T20:00:38.124Z,13.68
2022-12-08T20:03:08.205Z,9.85
2022-12-08T20:05:37.155Z,8.00
2022-12-08T20:08:05.577Z,7.72
2022-12-08T20:10:35.153Z,7.05
2022-12-08T20:13:20.657Z,6.40
2022-12-08T20:15:50.422Z,6.05
2022-12-08T20:18:18.858Z,5.63
2022-12-08T20:20:47.417Z,5.57
2022-12-08T20:23:16.067Z,5.47
2022-12-08T20:25:44.942Z,5.30
2022-12-08T20:28:13.158Z,6.07
2022-12-08T20:30:42.092Z,7.13
2022-12-08T20:33:13.385Z,5.65
2022-12-08T20:35:41.712Z,4.85
2022-12-08T20:38:09.882Z,5.75
2022-12-08T20:40:37.732Z,5.22
2022-12-08T20:43:05.982Z,5.38
2022-12-08T20:45:33.783Z,6.10
2022-12-08T20:48:01.697Z,5.38
2022-12-08T20:50:31.170Z,6.00
2022-12-08T20:52:59.322Z,5.45
2022-12-08T20:55:27.541Z,5.53
2022-12-08T20:57:55.403Z,4.82
2022-12-08T21:00:26.044Z,5.45
2022-12-08T21:02:56.783Z,5.50
2022-12-08T21:05:25.471Z,4.68
2022-12-08T21:07:55.016Z,4.65
2022-12-08T21:10:23.171Z,4.70
2022-12-08T21:12:51.029Z,5.20
2022-12-08T21:15:19.481Z,5.15
2022-12-08T21:17:47.580Z,5.15
2022-12-08T21:20:15.658Z,5.63
2022-12-08T21:22:43.776Z,5.15
2022-12-08T21:25:15.460Z,5.05
2022-12-08T21:27:43.516Z,5.28
2022-12-08T21:30:12.309Z,5.45
2022-12-08T21:32:40.789Z,4.95
2022-12-08T21:35:09.317Z,4.93
2022-12-08T21:37:37.436Z,6.30
2022-12-08T21:40:10.341Z,5.68
2022-12-08T21:42:46.292Z,5.13
2022-12-08T21:45:15.467Z,6.07
2022-12-08T21:47:43.774Z,6.05
2022-12-08T21:50:12.938Z,6.45
2022-12-08T21:52:41.757Z,7.47
2022-12-08T21:55:11.040Z,7.43
2022-12-08T21:57:40.722Z,7.20
2022-12-08T22:00:12.517Z,8.90
2022-12-08T22:02:40.749Z,8.33
2022-12-08T22:05:09.552Z,8.50
2022-12-08T22:07:38.922Z,10.00
2022-12-08T22:10:08.497Z,9.38
2022-12-08T22:12:37.174Z,9.30
2022-12-08T22:15:08.394Z,9.52
2022-12-08T22:17:37.579Z,7.90
2022-12-08T22:20:06.695Z,8.57
2022-12-08T22:22:35.885Z,7.72
2022-12-08T22:25:04.399Z,8.88
2022-12-08T22:27:34.235Z,9.48
2022-12-08T22:30:02.610Z,9.00
2022-12-08T22:32:32.798Z,8.38
2022-12-08T22:35:01.151Z,8.57
2022-12-08T22:37:29.171Z,8.10
2022-12-08T22:39:57.572Z,7.75
2022-12-08T22:42:25.529Z,8.52
2022-12-08T22:44:53.861Z,8.00
